createdAt,value
2023-01-24T00:01:50.350Z,54.06
2023-01-24T00:04:20.458Z,53.97
2023-01-24T00:06:50.409Z,53.95
2023-01-24T00:09:20.324Z,53.99
2023-01-24T00:11:50.211Z,54.01
2023-01-24T00:14:20.115Z,54.15
2023-01-24T00:16:50.041Z,53.94
2023-01-24T00:19:20.486Z,53.92
2023-01-24T00:21:50.666Z,54.07
2023-01-24T00:24:20.925Z,54.03
2023-01-24T00:26:51.118Z,53.91
2023-01-24T00:29:21.316Z,54.22
2023-01-24T00:31:51.422Z,54.23
2023-01-24T00:34:21.693Z,54.30
2023-01-24T00:36:51.868Z,54.45
2023-01-24T00:39:22.031Z,54.26
2023-01-24T00:41:52.149Z,54.16
2023-01-24T00:44:22.128Z,54.54
2023-01-24T00:46:55.535Z,54.49
2023-01-24T00:49:25.939Z,54.47
2023-01-24T00:51:56.059Z,54.47
2023-01-24T00:54:26.150Z,54.35
2023-01-24T00:56:56.114Z,54.30
2023-01-24T00:59:26.020Z,54.33
2023-01-24T01:01:56.005Z,54.25
2023-01-24T01:04:25.931Z,54.12
2023-01-24T01:06:56.830Z,53.82
2023-01-24T01:09:26.885Z,53.70
2023-01-24T01:11:56.708Z,53.48
2023-01-24T01:14:26.806Z,53.17
2023-01-24T01:16:56.760Z,53.19
2023-01-24T01:19:26.981Z,52.88
2023-01-24T01:21:56.974Z,52.77
2023-01-24T01:24:28.738Z,52.54
2023-01-24T01:26:58.817Z,52.53
2023-01-24T01:29:29.096Z,52.36
2023-01-24T01:31:59.334Z,52.20
2023-01-24T01:34:29.537Z,52.11
2023-01-24T01:36:59.687Z,51.97
2023-01-24T01:39:30.377Z,51.69
2023-01-24T01:42:01.316Z,51.88
2023-01-24T01:44:46.466Z,51.55
2023-01-24T01:47:33.595Z,51.46
2023-01-24T01:50:19.622Z,51.41
2023-01-24T01:52:50.473Z,51.14
2023-01-24T01:55:27.314Z,51.25
2023-01-24T01:57:57.925Z,51.25
2023-01-24T02:00:32.853Z,51.03
2023-01-24T02:03:32.161Z,51.18
2023-01-24T02:06:03.358Z,51.17
2023-01-24T02:08:34.009Z,51.16
2023-01-24T02:11:22.570Z,51.24
2023-01-24T02:14:12.831Z,51.08
2023-01-24T02:16:42.954Z,51.01
2023-01-24T02:19:22.642Z,50.90
2023-01-24T02:21:58.994Z,50.93
2023-01-24T02:24:41.312Z,50.93
2023-01-24T02:27:11.939Z,50.95
2023-01-24T02:29:42.087Z,51.01
2023-01-24T02:32:12.075Z,50.94
2023-01-24T02:34:42.197Z,51.12
2023-01-24T02:37:16.953Z,51.05
2023-01-24T02:40:03.243Z,51.18
2023-01-24T02:42:37.602Z,50.86
2023-01-24T02:45:17.167Z,51.08
2023-01-24T02:47:50.522Z,50.98
2023-01-24T02:50:22.771Z,51.01
2023-01-24T02:53:11.443Z,50.96
2023-01-24T02:56:01.590Z,50.98
2023-01-24T02:58:33.354Z,50.88
2023-01-24T03:01:03.410Z,50.82
2023-01-24T03:03:33.428Z,50.87
2023-01-24T03:06:03.895Z,50.98
2023-01-24T03:08:38.763Z,51.08
2023-01-24T03:11:17.100Z,51.02
2023-01-24T03:14:05.782Z,51.02
2023-01-24T03:16:54.132Z,50.89
2023-01-24T03:19:42.581Z,51.24
2023-01-24T03:22:31.596Z,51.24
2023-01-24T03:25:20.395Z,51.10
2023-01-24T03:28:09.026Z,51.12
2023-01-24T03:30:57.339Z,51.04
2023-01-24T03:33:48.093Z,51.25
2023-01-24T03:36:22.920Z,51.21
2023-01-24T03:39:16.073Z,51.35
2023-01-24T03:41:46.291Z,51.34
2023-01-24T03:44:16.340Z,51.26
2023-01-24T03:46:47.095Z,51.15
2023-01-24T03:49:19.724Z,51.24
2023-01-24T03:52:08.465Z,51.55
2023-01-24T03:54:38.671Z,51.44
2023-01-24T03:57:11.087Z,51.50
2023-01-24T03:59:41.375Z,51.19
2023-01-24T04:02:12.004Z,51.51
2023-01-24T04:05:01.602Z,51.21
2023-01-24T04:07:32.605Z,51.17
2023-01-24T04:10:06.872Z,51.08
2023-01-24T04:12:44.393Z,51.17
2023-01-24T04:15:21.584Z,51.39
2023-01-24T04:18:02.771Z,51.87
2023-01-24T04:20:35.404Z,51.44
2023-01-24T04:23:09.642Z,51.71
2023-01-24T04:25:41.950Z,51.67
2023-01-24T04:28:12.090Z,52.04
2023-01-24T04:30:42.504Z,52.31
2023-01-24T04:33:26.305Z,52.37
2023-01-24T04:36:03.439Z,52.39
2023-01-24T04:38:34.186Z,52.46
2023-01-24T04:41:08.957Z,51.80
2023-01-24T04:43:42.967Z,52.57
2023-01-24T04:46:13.802Z,52.65
2023-01-24T04:48:57.287Z,52.49
2023-01-24T04:51:54.512Z,51.93
2023-01-24T04:54:30.375Z,52.61
2023-01-24T04:57:01.194Z,52.16
2023-01-24T04:59:32.464Z,52.21
2023-01-24T05:02:02.920Z,52.59
2023-01-24T05:04:43.631Z,52.46
2023-01-24T05:07:15.175Z,52.09
2023-01-24T05:09:48.997Z,52.30
2023-01-24T05:12:19.774Z,52.25
2023-01-24T05:14:50.005Z,52.46
2023-01-24T05:17:20.210Z,52.46
2023-01-24T05:19:50.581Z,52.59
2023-01-24T05:22:20.804Z,51.35
2023-01-24T05:24:50.697Z,52.16
2023-01-24T05:27:20.545Z,52.18
2023-01-24T05:29:58.246Z,51.65
2023-01-24T05:32:28.403Z,52.00
2023-01-24T05:34:58.288Z,51.52
2023-01-24T05:37:28.839Z,50.99
2023-01-24T05:39:59.563Z,51.66
2023-01-24T05:42:30.085Z,51.55
2023-01-24T05:45:00.316Z,51.66
2023-01-24T05:47:30.329Z,51.25
2023-01-24T05:50:00.176Z,51.47
2023-01-24T05:52:30.818Z,51.37
2023-01-24T05:55:00.932Z,51.90
2023-01-24T05:57:40.372Z,51.41
2023-01-24T06:00:29.159Z,51.49
2023-01-24T06:03:25.949Z,51.52
2023-01-24T06:05:59.125Z,51.33
2023-01-24T06:08:32.536Z,51.53
2023-01-24T06:11:22.364Z,51.51
2023-01-24T06:13:53.405Z,51.40
2023-01-24T06:16:26.585Z,51.52
2023-01-24T06:18:58.083Z,51.42
2023-01-24T06:21:43.449Z,51.63
2023-01-24T06:24:26.376Z,51.71
2023-01-24T06:27:12.559Z,51.71
2023-01-24T06:29:43.051Z,51.69
2023-01-24T06:32:34.116Z,52.03
2023-01-24T06:35:29.483Z,52.00
2023-01-24T06:38:01.385Z,52.04
2023-01-24T06:40:32.932Z,52.25
2023-01-24T06:43:03.210Z,52.18
2023-01-24T06:45:33.338Z,52.07
2023-01-24T06:48:03.916Z,52.32
2023-01-24T06:50:35.673Z,52.09
2023-01-24T06:53:05.811Z,52.19
2023-01-24T06:55:35.711Z,52.27
2023-01-24T06:58:07.989Z,52.15
2023-01-24T07:00:38.258Z,52.31
2023-01-24T07:03:10.494Z,52.32
2023-01-24T07:05:42.622Z,52.20
2023-01-24T07:08:14.136Z,52.43
2023-01-24T07:10:44.444Z,52.56
2023-01-24T07:13:14.395Z,52.35
2023-01-24T07:15:44.250Z,52.41
2023-01-24T07:18:19.694Z,52.60
2023-01-24T07:20:50.965Z,52.60
2023-01-24T07:23:26.821Z,52.67
2023-01-24T07:25:59.269Z,52.75
2023-01-24T07:28:29.422Z,52.51
2023-01-24T07:30:59.445Z,52.70
2023-01-24T07:33:29.349Z,52.76
2023-01-24T07:35:59.229Z,52.69
2023-01-24T07:38:29.132Z,52.67
2023-01-24T07:40:59.038Z,52.79
2023-01-24T07:43:28.881Z,52.64
2023-01-24T07:45:58.732Z,52.79
2023-01-24T07:48:28.887Z,52.67
2023-01-24T07:51:02.918Z,52.55
2023-01-24T07:53:32.944Z,52.61
2023-01-24T07:56:03.703Z,52.85
2023-01-24T07:58:34.529Z,52.73
2023-01-24T08:01:04.583Z,52.71
2023-01-24T08:03:34.686Z,52.85
2023-01-24T08:06:07.737Z,52.80
2023-01-24T08:08:37.819Z,52.73
2023-01-24T08:11:08.354Z,52.66
2023-01-24T08:13:38.549Z,52.70
2023-01-24T08:16:08.968Z,52.79
2023-01-24T08:18:40.961Z,52.57
2023-01-24T08:21:13.503Z,52.44
2023-01-24T08:23:44.557Z,52.40
2023-01-24T08:26:14.699Z,52.55
2023-01-24T08:28:44.570Z,52.36
2023-01-24T08:31:14.776Z,52.48
2023-01-24T08:33:44.966Z,52.55
2023-01-24T08:36:15.396Z,52.54
2023-01-24T08:38:45.367Z,52.62
2023-01-24T08:41:15.298Z,52.58
2023-01-24T08:43:45.563Z,52.66
2023-01-24T08:46:15.654Z,52.56
2023-01-24T08:48:45.543Z,52.73
2023-01-24T08:51:15.618Z,52.75
2023-01-24T08:53:45.444Z,52.59
2023-01-24T08:56:16.096Z,52.56
2023-01-24T08:58:46.106Z,52.44
2023-01-24T09:01:16.115Z,52.49
2023-01-24T09:03:46.179Z,52.33
2023-01-24T09:06:17.658Z,52.17
2023-01-24T09:08:47.969Z,52.34
2023-01-24T09:11:18.126Z,52.01
2023-01-24T09:13:48.207Z,52.10
2023-01-24T09:16:18.154Z,51.97
2023-01-24T09:18:48.045Z,52.26
2023-01-24T09:21:18.441Z,52.21
2023-01-24T09:23:48.531Z,52.31
2023-01-24T09:26:18.425Z,52.11
2023-01-24T09:28:48.434Z,52.02
2023-01-24T09:31:18.496Z,52.12
2023-01-24T09:33:59.084Z,52.15
2023-01-24T09:36:30.935Z,52.09
2023-01-24T09:39:06.184Z,51.92
2023-01-24T09:42:11.457Z,52.03
2023-01-24T09:45:00.245Z,51.94
2023-01-24T09:47:58.881Z,51.98
2023-01-24T09:50:53.403Z,51.87
2023-01-24T09:53:47.455Z,51.93
2023-01-24T09:56:33.688Z,52.14
2023-01-24T09:59:22.335Z,51.97
2023-01-24T10:01:54.076Z,52.19
2023-01-24T10:04:50.848Z,52.30
2023-01-24T10:07:44.361Z,52.23
2023-01-24T10:10:32.796Z,52.40
2023-01-24T10:13:27.420Z,52.36
2023-01-24T10:16:34.327Z,52.31
2023-01-24T10:19:29.109Z,52.47
2023-01-24T10:22:18.494Z,52.73
2023-01-24T10:24:59.342Z,52.72
2023-01-24T10:27:38.644Z,52.65
2023-01-24T10:30:29.993Z,52.57
2023-01-24T10:33:05.328Z,52.57
2023-01-24T10:35:47.052Z,52.69
2023-01-24T10:38:21.433Z,52.65
2023-01-24T10:41:15.429Z,52.74
2023-01-24T10:43:49.203Z,52.68
2023-01-24T10:46:55.461Z,52.70
2023-01-24T10:49:34.388Z,52.74
2023-01-24T10:52:17.913Z,52.90
2023-01-24T10:54:51.369Z,52.72
2023-01-24T10:57:41.677Z,52.87
2023-01-24T11:00:32.480Z,52.91
2023-01-24T11:03:05.617Z,52.84
2023-01-24T11:05:42.709Z,52.93
2023-01-24T11:08:24.492Z,52.94
2023-01-24T11:11:01.781Z,52.92
2023-01-24T11:13:39.318Z,53.18
2023-01-24T11:16:45.384Z,53.06
2023-01-24T11:19:35.342Z,53.03
2023-01-24T11:22:26.639Z,52.95
2023-01-24T11:25:02.932Z,53.27
2023-01-24T11:27:34.337Z,53.09
2023-01-24T11:30:10.541Z,53.43
2023-01-24T11:33:05.443Z,53.33
2023-01-24T11:35:44.540Z,53.39
2023-01-24T11:38:17.725Z,53.24
2023-01-24T11:41:23.830Z,53.27
2023-01-24T11:44:12.031Z,53.34
2023-01-24T11:47:03.246Z,53.39
2023-01-24T11:49:40.758Z,53.52
2023-01-24T11:52:33.879Z,53.68
2023-01-24T11:55:15.389Z,53.63
2023-01-24T11:57:47.942Z,53.73
2023-01-24T12:00:39.768Z,53.81
2023-01-24T12:03:18.688Z,53.78
2023-01-24T12:06:17.305Z,53.77
2023-01-24T12:09:11.314Z,53.98
2023-01-24T12:12:17.312Z,53.95
2023-01-24T12:15:24.375Z,53.96
2023-01-24T12:18:03.507Z,54.08
2023-01-24T12:20:48.511Z,54.12
2023-01-24T12:23:48.661Z,54.24
2023-01-24T12:26:40.020Z,54.22
2023-01-24T12:29:27.455Z,54.09
2023-01-24T12:32:29.521Z,54.39
2023-01-24T12:35:23.443Z,54.38
2023-01-24T12:38:08.908Z,54.35
2023-01-24T12:40:38.979Z,54.32
2023-01-24T12:43:23.849Z,54.47
2023-01-24T12:46:08.761Z,54.59
2023-01-24T12:48:43.057Z,54.52
2023-01-24T12:51:39.224Z,54.59
2023-01-24T12:54:23.582Z,54.63
2023-01-24T12:57:04.526Z,54.84
2023-01-24T12:59:36.875Z,55.24
2023-01-24T13:02:25.198Z,54.95
2023-01-24T13:05:04.017Z,54.97
2023-01-24T13:07:56.846Z,54.90
2023-01-24T13:10:40.289Z,55.07
2023-01-24T13:24:06.651Z,56.29
2023-01-24T13:27:10.494Z,56.72
2023-01-24T13:30:01.904Z,56.78
2023-01-24T13:32:41.558Z,57.01
2023-01-24T13:35:28.796Z,56.92
2023-01-24T13:38:20.455Z,56.73
2023-01-24T13:41:05.101Z,56.60
2023-01-24T13:44:00.793Z,56.83
2023-01-24T13:46:48.612Z,56.64
2023-01-24T13:49:38.798Z,56.54
2023-01-24T13:52:36.983Z,56.49
2023-01-24T13:55:28.614Z,56.53
2023-01-24T13:58:10.692Z,56.51
2023-01-24T14:00:53.281Z,56.20
2023-01-24T14:03:41.839Z,55.91
2023-01-24T14:06:16.019Z,56.48
2023-01-24T14:08:50.575Z,56.30
2023-01-24T14:11:24.346Z,56.38
2023-01-24T14:13:59.403Z,56.44
2023-01-24T14:16:35.860Z,56.75
2023-01-24T14:19:23.934Z,56.73
2023-01-24T14:22:12.144Z,56.88
2023-01-24T14:25:07.984Z,56.78
2023-01-24T14:27:44.017Z,56.86
2023-01-24T14:30:33.889Z,57.10
2023-01-24T14:33:21.107Z,56.83
2023-01-24T14:36:25.700Z,56.90
2023-01-24T14:39:33.896Z,56.79
2023-01-24T14:42:06.720Z,57.24
2023-01-24T14:44:42.651Z,56.99
2023-01-24T14:47:27.904Z,56.95
2023-01-24T14:50:00.463Z,56.94
2023-01-24T14:52:36.340Z,57.06
2023-01-24T14:55:34.685Z,57.31
2023-01-24T14:58:24.778Z,57.06
2023-01-24T15:00:58.203Z,57.18
2023-01-24T15:03:34.081Z,57.54
2023-01-24T15:06:06.178Z,57.61
2023-01-24T15:08:37.279Z,57.53
2023-01-24T15:11:20.854Z,57.39
2023-01-24T15:13:59.545Z,57.37
2023-01-24T15:16:49.327Z,57.41
2023-01-24T15:19:30.510Z,57.45
2023-01-24T15:22:00.903Z,57.38
2023-01-24T15:24:35.299Z,57.45
2023-01-24T15:27:42.945Z,57.42
2023-01-24T15:30:30.163Z,57.38
2023-01-24T15:32:59.992Z,57.28
2023-01-24T15:35:30.454Z,57.47
2023-01-24T15:38:08.883Z,57.38
2023-01-24T15:40:48.525Z,57.32
2023-01-24T15:43:49.476Z,57.40
2023-01-24T15:46:53.044Z,57.19
2023-01-24T15:49:34.660Z,57.44
2023-01-24T15:52:10.101Z,57.28
2023-01-24T15:54:42.272Z,57.66
2023-01-24T15:57:27.016Z,57.25
2023-01-24T15:59:59.117Z,57.08
2023-01-24T16:02:30.015Z,56.54
2023-01-24T16:05:01.499Z,56.50
2023-01-24T16:07:31.147Z,56.91
2023-01-24T16:10:01.248Z,56.33
2023-01-24T16:12:35.428Z,56.46
2023-01-24T16:15:09.629Z,56.39
2023-01-24T16:17:40.065Z,56.25
2023-01-24T16:20:30.786Z,56.10
2023-01-24T16:23:00.881Z,55.85
2023-01-24T16:25:31.034Z,55.84
2023-01-24T16:28:01.015Z,55.77
2023-01-24T16:30:31.028Z,55.46
2023-01-24T16:33:01.371Z,55.38
2023-01-24T16:35:31.457Z,55.17
2023-01-24T16:38:01.613Z,54.88
2023-01-24T16:40:31.545Z,54.67
2023-01-24T16:43:06.030Z,54.89
2023-01-24T16:45:36.985Z,54.62
2023-01-24T16:48:07.446Z,54.48
2023-01-24T16:50:37.406Z,54.33
2023-01-24T16:53:07.366Z,54.44
2023-01-24T16:55:40.881Z,54.23
2023-01-24T16:58:12.672Z,54.31
2023-01-24T17:00:42.983Z,54.12
2023-01-24T17:03:13.407Z,53.87
2023-01-24T17:05:43.515Z,53.53
2023-01-24T17:08:17.008Z,53.62
2023-01-24T17:10:47.159Z,53.21
2023-01-24T17:13:17.801Z,53.02
2023-01-24T17:15:48.974Z,53.08
2023-01-24T17:18:18.994Z,52.78
2023-01-24T17:20:49.095Z,52.72
2023-01-24T17:23:19.075Z,52.31
2023-01-24T17:25:49.155Z,51.99
2023-01-24T17:28:19.754Z,51.80
2023-01-24T17:30:49.778Z,51.33
2023-01-24T17:33:19.705Z,51.21
2023-01-24T17:35:49.739Z,50.85
2023-01-24T17:38:19.889Z,50.59
2023-01-24T17:40:54.966Z,50.10
2023-01-24T17:43:25.240Z,49.57
2023-01-24T17:46:00.059Z,49.59
2023-01-24T17:48:30.699Z,49.25
2023-01-24T17:51:00.723Z,48.89
2023-01-24T17:53:30.562Z,48.74
2023-01-24T17:56:00.680Z,48.47
2023-01-24T17:58:30.805Z,48.32
2023-01-24T18:01:00.982Z,48.38
2023-01-24T18:03:31.186Z,48.06
2023-01-24T18:06:05.390Z,48.03
2023-01-24T18:08:35.559Z,47.95
2023-01-24T18:11:13.373Z,47.70
2023-01-24T18:13:44.683Z,47.56
2023-01-24T18:16:17.878Z,47.51
2023-01-24T18:18:48.167Z,47.49
2023-01-24T18:21:21.332Z,47.29
2023-01-24T18:23:55.315Z,47.12
2023-01-24T18:26:27.453Z,47.06
2023-01-24T18:28:59.823Z,46.86
2023-01-24T18:31:31.587Z,47.06
2023-01-24T18:34:01.753Z,46.67
2023-01-24T18:36:32.147Z,47.02
2023-01-24T18:39:02.181Z,46.86
2023-01-24T18:41:32.328Z,46.87
2023-01-24T18:44:06.130Z,46.65
2023-01-24T18:46:37.721Z,46.74
2023-01-24T18:49:07.998Z,46.56
2023-01-24T18:51:37.870Z,46.81
2023-01-24T18:54:09.493Z,46.67
2023-01-24T18:56:39.592Z,46.67
2023-01-24T18:59:09.409Z,46.67
2023-01-24T19:01:40.956Z,46.79
2023-01-24T19:04:11.058Z,46.92
2023-01-24T19:06:41.679Z,46.83
2023-01-24T19:09:11.992Z,46.69
2023-01-24T19:11:42.571Z,46.69
2023-01-24T19:14:14.056Z,46.81
2023-01-24T19:16:45.867Z,46.77
2023-01-24T19:19:27.945Z,46.81
2023-01-24T19:21:58.087Z,46.88
2023-01-24T19:24:29.711Z,46.84
2023-01-24T19:26:59.906Z,46.85
2023-01-24T19:29:29.985Z,46.94
2023-01-24T19:31:59.892Z,46.97
2023-01-24T19:34:29.850Z,46.79
2023-01-24T19:36:59.725Z,47.08
2023-01-24T19:39:29.775Z,46.97
2023-01-24T19:41:59.593Z,47.07
2023-01-24T19:44:29.452Z,47.05
2023-01-24T19:46:59.538Z,47.21
2023-01-24T19:49:29.436Z,47.38
2023-01-24T19:51:59.289Z,47.18
2023-01-24T19:54:29.227Z,47.25
2023-01-24T19:56:59.225Z,47.35
2023-01-24T19:59:30.925Z,47.29
2023-01-24T20:02:01.664Z,47.32
2023-01-24T20:04:38.197Z,47.29
2023-01-24T20:07:14.822Z,47.20
2023-01-24T20:09:44.687Z,47.27
2023-01-24T20:12:14.730Z,47.42
2023-01-24T20:14:44.846Z,47.47
2023-01-24T20:17:14.852Z,47.45
2023-01-24T20:19:55.631Z,47.56
2023-01-24T20:22:30.299Z,47.54
2023-01-24T20:25:02.446Z,47.67
2023-01-24T20:27:37.364Z,47.58
2023-01-24T20:30:08.095Z,47.80
2023-01-24T20:32:38.249Z,47.54
2023-01-24T20:35:08.824Z,47.58
2023-01-24T20:37:39.464Z,47.58
2023-01-24T20:40:11.320Z,47.47
2023-01-24T20:42:44.130Z,47.60
2023-01-24T20:45:14.300Z,47.58
2023-01-24T20:47:44.396Z,47.59
2023-01-24T20:50:14.530Z,47.52
2023-01-24T20:52:44.412Z,47.65
2023-01-24T20:55:14.342Z,47.68
2023-01-24T20:57:44.232Z,47.52
2023-01-24T21:00:14.852Z,47.75
2023-01-24T21:02:45.590Z,47.77
2023-01-24T21:05:15.639Z,47.78
2023-01-24T21:07:45.584Z,47.68
2023-01-24T21:10:15.528Z,47.71
2023-01-24T21:12:45.855Z,47.71
2023-01-24T21:15:16.326Z,47.62
2023-01-24T21:17:46.612Z,47.75
2023-01-24T21:20:16.877Z,47.80
2023-01-24T21:22:46.859Z,47.90
2023-01-24T21:25:16.797Z,47.81
2023-01-24T21:27:46.863Z,47.92
2023-01-24T21:30:17.831Z,47.89
2023-01-24T21:32:47.981Z,47.89
2023-01-24T21:35:17.953Z,47.85
2023-01-24T21:37:47.816Z,47.76
2023-01-24T21:40:17.868Z,47.72
2023-01-24T21:42:48.007Z,47.89
2023-01-24T21:45:18.017Z,47.63
2023-01-24T21:47:50.788Z,47.60
2023-01-24T21:50:21.357Z,47.59
2023-01-24T21:52:54.808Z,47.58
2023-01-24T21:55:24.882Z,47.61
2023-01-24T21:58:08.009Z,47.61
2023-01-24T22:00:38.107Z,47.65
2023-01-24T22:03:26.294Z,47.53
2023-01-24T22:05:56.800Z,47.46
2023-01-24T22:08:26.822Z,47.41
2023-01-24T22:11:00.710Z,47.47
2023-01-24T22:13:30.762Z,47.27
2023-01-24T22:16:01.087Z,47.18
2023-01-24T22:18:31.514Z,47.35
2023-01-24T22:21:02.946Z,47.29
2023-01-24T22:23:34.904Z,47.42
2023-01-24T22:26:14.163Z,47.83
2023-01-24T22:28:44.559Z,48.05
2023-01-24T22:31:15.321Z,48.08
2023-01-24T22:33:45.708Z,47.94
2023-01-24T22:36:15.879Z,47.92
2023-01-24T22:38:45.914Z,47.86
2023-01-24T22:41:15.858Z,47.92
2023-01-24T22:43:45.848Z,47.90
2023-01-24T22:48:17.648Z,47.38
2023-01-24T22:50:48.154Z,47.50
2023-01-24T22:53:18.256Z,47.51
2023-01-24T22:55:48.388Z,46.98
2023-01-24T22:58:18.280Z,46.66
2023-01-24T23:00:48.399Z,47.00
2023-01-24T23:03:18.299Z,46.87
2023-01-24T23:05:48.246Z,47.03
2023-01-24T23:08:19.924Z,47.03
2023-01-24T23:10:51.112Z,47.01
2023-01-24T23:13:41.271Z,46.94
2023-01-24T23:16:18.208Z,46.98
2023-01-24T23:19:06.683Z,46.70
2023-01-24T23:21:38.144Z,46.97
2023-01-24T23:24:08.604Z,46.95
2023-01-24T23:26:38.796Z,46.96
2023-01-24T23:29:40.987Z,47.01
2023-01-24T23:32:34.313Z,46.99
2023-01-24T23:35:04.402Z,46.81
2023-01-24T23:37:36.242Z,46.80
2023-01-24T23:40:07.123Z,46.77
2023-01-24T23:42:37.595Z,46.72
2023-01-24T23:45:08.623Z,46.88
2023-01-24T23:47:39.036Z,47.04
2023-01-24T23:50:09.508Z,47.11
2023-01-24T23:52:39.926Z,46.95
2023-01-24T23:55:10.844Z,46.89
2023-01-24T23:57:41.143Z,46.63
